createdAt,value
2022-11-24T00:01:09.380Z,5.40
2022-11-24T00:03:36.805Z,5.72
2022-11-24T00:06:06.311Z,7.43
2022-11-24T00:08:33.668Z,7.82
2022-11-24T00:11:06.097Z,7.03
2022-11-24T00:13:33.918Z,8.43
2022-11-24T00:16:11.923Z,7.72
2022-11-24T00:18:41.731Z,6.80
2022-11-24T00:21:10.081Z,6.55
2022-11-24T00:23:37.939Z,8.20
2022-11-24T00:26:07.577Z,8.25
2022-11-24T00:28:35.778Z,5.65
2022-11-24T00:31:05.027Z,8.43
2022-11-24T00:33:34.446Z,5.95
2022-11-24T00:36:01.694Z,6.22
2022-11-24T00:38:31.006Z,8.32
2022-11-24T00:40:58.049Z,6.15
2022-11-24T00:43:25.503Z,5.97
2022-11-24T00:45:53.239Z,3.90
2022-11-24T00:48:20.340Z,6.40
2022-11-24T00:51:01.899Z,5.50
2022-11-24T00:53:29.664Z,9.13
2022-11-24T00:55:57.152Z,8.35
2022-11-24T00:58:25.720Z,7.45
2022-11-24T01:00:53.312Z,5.25
2022-11-24T01:03:21.363Z,4.80
2022-11-24T01:05:48.780Z,5.15
2022-11-24T01:08:17.105Z,7.53
2022-11-24T01:10:43.995Z,8.20
2022-11-24T01:13:10.960Z,5.53
2022-11-24T01:15:38.031Z,4.50
2022-11-24T01:18:07.462Z,6.22
2022-11-24T01:20:37.104Z,6.90
2022-11-24T01:23:03.954Z,8.02
2022-11-24T01:25:32.379Z,5.75
2022-11-24T01:27:59.505Z,5.57
2022-11-24T01:30:26.676Z,7.00
2022-11-24T01:32:54.006Z,7.68
2022-11-24T01:35:21.031Z,8.65
2022-11-24T01:37:48.590Z,6.90
2022-11-24T01:40:16.601Z,9.20
2022-11-24T01:42:49.725Z,8.07
2022-11-24T01:45:34.624Z,4.88
2022-11-24T01:48:06.326Z,4.85
2022-11-24T01:50:36.333Z,6.72
2022-11-24T01:53:05.213Z,7.68
2022-11-24T01:55:37.810Z,7.78
2022-11-24T01:58:12.530Z,7.65
2022-11-24T02:00:44.113Z,6.47
2022-11-24T02:03:18.077Z,5.15
2022-11-24T02:05:51.181Z,5.10
2022-11-24T02:08:32.605Z,5.03
2022-11-24T02:11:04.171Z,7.50
2022-11-24T02:13:40.293Z,6.20
2022-11-24T02:16:12.329Z,7.82
2022-11-24T02:18:41.911Z,4.95
2022-11-24T02:21:17.862Z,8.13
2022-11-24T02:23:57.060Z,3.22
2022-11-24T02:26:40.149Z,6.45
2022-11-24T02:29:10.281Z,5.85
2022-11-24T02:31:48.000Z,5.97
2022-11-24T02:34:16.051Z,8.88
2022-11-24T02:36:48.041Z,8.45
2022-11-24T02:39:16.281Z,5.60
2022-11-24T02:41:52.004Z,5.25
2022-11-24T02:44:24.917Z,8.68
2022-11-24T02:47:05.900Z,5.63
2022-11-24T02:49:32.963Z,5.70
2022-11-24T02:52:02.154Z,5.22
2022-11-24T02:54:35.478Z,6.78
2022-11-24T02:57:09.388Z,5.22
2022-11-24T02:59:36.689Z,5.88
2022-11-24T03:02:10.497Z,5.05
2022-11-24T03:04:39.422Z,5.82
2022-11-24T03:07:07.271Z,9.48
2022-11-24T03:09:34.456Z,7.40
2022-11-24T03:14:56.285Z,8.13
2022-11-24T03:17:24.981Z,8.85
2022-11-24T03:19:54.079Z,5.78
2022-11-24T03:22:21.047Z,5.32
2022-11-24T03:24:48.259Z,8.52
2022-11-24T03:27:15.137Z,6.13
2022-11-24T03:29:42.716Z,7.88
2022-11-24T03:32:11.021Z,6.75
2022-11-24T03:34:37.949Z,5.35
2022-11-24T03:37:04.860Z,3.90
2022-11-24T03:39:32.162Z,5.22
2022-11-24T03:41:59.114Z,7.88
2022-11-24T03:44:51.447Z,4.75
2022-11-24T03:47:19.605Z,5.55
2022-11-24T03:49:46.565Z,5.13
2022-11-24T03:52:13.630Z,5.70
2022-11-24T03:54:40.678Z,6.55
2022-11-24T03:57:07.618Z,7.63
2022-11-24T03:59:34.831Z,7.35
2022-11-24T04:02:01.765Z,8.30
2022-11-24T04:04:30.019Z,6.88
2022-11-24T04:06:56.990Z,5.82
2022-11-24T04:09:24.067Z,5.50
2022-11-24T04:11:51.046Z,6.50
2022-11-24T04:14:18.567Z,5.55
2022-11-24T04:16:45.665Z,5.18
2022-11-24T04:19:12.749Z,7.72
2022-11-24T04:21:41.120Z,5.85
2022-11-24T04:24:08.441Z,5.30
2022-11-24T04:26:35.506Z,4.53
2022-11-24T04:29:02.687Z,6.82
2022-11-24T04:31:29.655Z,7.10
2022-11-24T04:33:56.629Z,7.03
2022-11-24T04:36:23.482Z,6.07
2022-11-24T04:39:23.378Z,7.03
2022-11-24T04:41:40.507Z,4.13
2022-11-24T04:44:07.634Z,3.38
2022-11-24T04:46:34.830Z,9.43
2022-11-24T04:49:02.055Z,8.23
2022-11-24T04:51:29.105Z,6.85
2022-11-24T04:53:57.636Z,4.10
2022-11-24T04:56:29.442Z,10.57
2022-11-24T04:58:56.601Z,8.15
2022-11-24T05:01:23.541Z,6.43
2022-11-24T05:03:53.373Z,6.03
2022-11-24T05:06:20.971Z,7.88
2022-11-24T05:08:47.988Z,6.65
2022-11-24T05:11:16.994Z,7.72
2022-11-24T05:13:44.004Z,5.10
2022-11-24T05:16:11.208Z,7.13
2022-11-24T05:18:38.829Z,5.88
2022-11-24T05:21:06.063Z,4.28
2022-11-24T05:23:33.139Z,8.15
2022-11-24T05:26:00.973Z,7.38
2022-11-24T05:28:29.671Z,4.90
2022-11-24T05:31:00.334Z,7.90
2022-11-24T05:33:27.768Z,7.93
2022-11-24T05:35:55.026Z,8.52
2022-11-24T05:38:22.455Z,8.07
2022-11-24T05:40:49.506Z,5.38
2022-11-24T05:43:17.613Z,5.32
2022-11-24T05:45:46.480Z,9.20
2022-11-24T05:48:15.009Z,7.80
2022-11-24T05:50:42.505Z,6.18
2022-11-24T05:53:12.312Z,8.13
2022-11-24T05:55:40.571Z,5.80
2022-11-24T05:58:09.728Z,7.85
2022-11-24T06:00:37.297Z,6.15
2022-11-24T06:03:05.788Z,8.10
2022-11-24T06:05:33.039Z,7.45
2022-11-24T06:08:00.264Z,7.25
2022-11-24T06:10:27.935Z,7.07
2022-11-24T06:12:55.124Z,9.40
2022-11-24T06:15:22.925Z,10.30
2022-11-24T06:17:54.143Z,8.52
2022-11-24T06:20:27.035Z,10.32
2022-11-24T06:22:57.927Z,7.32
2022-11-24T06:25:24.878Z,8.43
2022-11-24T06:27:51.728Z,8.65
2022-11-24T06:30:19.158Z,10.40
2022-11-24T06:32:49.403Z,7.93
2022-11-24T06:35:17.717Z,7.28
2022-11-24T06:37:46.133Z,10.10
2022-11-24T06:40:13.177Z,10.95
2022-11-24T06:42:39.991Z,5.82
2022-11-24T06:45:09.560Z,7.80
2022-11-24T06:47:37.435Z,8.27
2022-11-24T06:50:05.421Z,6.70
2022-11-24T06:52:32.536Z,8.18
2022-11-24T06:55:00.716Z,5.60
2022-11-24T06:57:27.864Z,7.00
2022-11-24T06:59:54.984Z,13.60
2022-11-24T07:02:21.789Z,11.30
2022-11-24T07:04:48.943Z,9.32
2022-11-24T07:07:15.809Z,11.32
2022-11-24T07:09:42.789Z,8.57
2022-11-24T07:12:13.690Z,9.07
2022-11-24T07:14:40.864Z,8.75
2022-11-24T07:17:07.736Z,9.02
2022-11-24T07:19:34.743Z,12.45
2022-11-24T07:22:01.628Z,8.10
2022-11-24T07:24:28.683Z,6.53
2022-11-24T07:26:55.734Z,10.25
2022-11-24T07:29:23.867Z,8.77
2022-11-24T07:31:51.338Z,10.50
2022-11-24T07:34:18.393Z,11.50
2022-11-24T07:36:45.215Z,6.95
2022-11-24T07:39:12.636Z,7.97
2022-11-24T07:41:39.696Z,8.18
2022-11-24T07:44:07.167Z,8.68
2022-11-24T07:46:35.331Z,10.55
2022-11-24T07:49:02.491Z,7.97
2022-11-24T07:51:29.392Z,9.85
2022-11-24T07:53:56.407Z,9.07
2022-11-24T07:56:23.344Z,12.95
2022-11-24T07:58:53.088Z,6.57
2022-11-24T08:01:20.499Z,8.63
2022-11-24T08:03:48.818Z,8.32
2022-11-24T08:06:24.438Z,7.45
2022-11-24T08:08:53.519Z,10.20
2022-11-24T08:11:20.475Z,9.27
2022-11-24T08:13:47.787Z,7.70
2022-11-24T08:16:17.767Z,11.55
2022-11-24T08:18:51.184Z,10.60
2022-11-24T08:21:19.011Z,8.90
2022-11-24T08:23:46.311Z,9.88
2022-11-24T08:26:15.979Z,10.50
2022-11-24T08:28:44.219Z,9.70
2022-11-24T08:31:13.507Z,8.20
2022-11-24T08:33:41.543Z,10.27
2022-11-24T08:36:13.168Z,7.72
2022-11-24T08:38:40.830Z,6.00
2022-11-24T08:41:13.096Z,10.35
2022-11-24T08:43:40.863Z,9.07
2022-11-24T08:46:10.060Z,9.43
2022-11-24T08:48:37.434Z,11.00
2022-11-24T08:51:30.287Z,10.48
2022-11-24T08:53:58.728Z,10.05
2022-11-24T08:56:26.635Z,8.88
2022-11-24T08:58:54.012Z,6.38
2022-11-24T09:01:21.647Z,9.57
2022-11-24T09:03:51.165Z,9.25
2022-11-24T09:06:20.920Z,13.07
2022-11-24T09:08:49.219Z,8.38
2022-11-24T09:11:16.710Z,12.10
2022-11-24T09:13:44.706Z,13.70
2022-11-24T09:16:18.108Z,11.73
2022-11-24T09:18:45.965Z,10.05
2022-11-24T09:21:15.397Z,12.27
2022-11-24T09:23:44.628Z,6.88
2022-11-24T09:26:16.238Z,7.85
2022-11-24T09:28:43.684Z,9.38
2022-11-24T09:31:13.060Z,9.60
2022-11-24T09:33:41.081Z,9.82
2022-11-24T09:36:09.040Z,7.55
2022-11-24T09:38:36.264Z,7.90
2022-11-24T09:41:34.764Z,8.52
2022-11-24T09:44:17.275Z,13.35
2022-11-24T09:46:59.118Z,11.52
2022-11-24T09:49:35.547Z,7.70
2022-11-24T09:52:09.643Z,9.80
2022-11-24T09:54:47.851Z,6.70
2022-11-24T09:57:18.601Z,8.18
2022-11-24T09:59:45.772Z,10.43
2022-11-24T10:02:13.587Z,7.95
2022-11-24T10:04:44.534Z,8.88
2022-11-24T10:07:27.678Z,6.88
2022-11-24T10:10:06.770Z,11.85
2022-11-24T10:12:53.509Z,8.75
2022-11-24T10:15:37.367Z,12.00
2022-11-24T10:18:33.685Z,9.30
2022-11-24T10:21:28.250Z,12.20
2022-11-24T10:24:18.739Z,10.45
2022-11-24T10:26:53.243Z,7.28
2022-11-24T10:29:30.466Z,7.60
2022-11-24T10:31:58.197Z,4.45
2022-11-24T10:34:33.983Z,13.85
2022-11-24T10:37:12.894Z,9.20
2022-11-24T10:39:49.953Z,11.57
2022-11-24T10:42:25.309Z,6.07
2022-11-24T10:45:02.327Z,11.50
2022-11-24T10:47:31.389Z,12.07
2022-11-24T10:50:05.201Z,8.90
2022-11-24T10:52:41.277Z,11.05
2022-11-24T10:55:08.136Z,12.40
2022-11-24T10:57:37.823Z,7.45
2022-11-24T11:00:32.923Z,10.02
2022-11-24T11:03:18.786Z,9.70
2022-11-24T11:05:52.111Z,8.68
2022-11-24T11:08:26.194Z,10.73
2022-11-24T11:11:17.583Z,10.45
2022-11-24T11:13:51.222Z,11.55
2022-11-24T11:16:28.013Z,10.20
2022-11-24T11:18:55.133Z,12.23
2022-11-24T11:21:32.824Z,8.88
2022-11-24T11:24:01.853Z,10.25
2022-11-24T11:26:35.735Z,7.18
2022-11-24T11:35:06.517Z,14.25
2022-11-24T11:37:34.275Z,13.13
2022-11-24T11:40:02.244Z,9.32
2022-11-24T11:43:01.248Z,11.23
2022-11-24T11:45:34.609Z,9.05
2022-11-24T11:48:25.017Z,13.32
2022-11-24T11:53:59.901Z,15.55
2022-11-24T11:56:31.410Z,10.30
2022-11-24T11:59:36.939Z,10.13
2022-11-24T12:02:53.734Z,14.50
2022-11-24T12:05:34.718Z,12.40
2022-11-24T12:08:21.217Z,10.93
2022-11-24T12:10:58.622Z,9.05
2022-11-24T12:13:58.415Z,12.63
2022-11-24T12:16:44.644Z,15.07
2022-11-24T12:19:47.172Z,14.10
2022-11-24T12:22:27.392Z,8.80
2022-11-24T12:25:06.663Z,13.15
2022-11-24T12:27:50.474Z,13.63
2022-11-24T12:30:22.063Z,13.07
2022-11-24T12:33:11.384Z,11.93
2022-11-24T12:35:42.556Z,15.50
2022-11-24T12:38:31.270Z,9.98
2022-11-24T12:44:16.343Z,12.90
2022-11-24T12:46:57.054Z,14.55
2022-11-24T12:49:35.604Z,12.63
2022-11-24T12:52:13.114Z,12.68
2022-11-24T12:54:41.878Z,14.52
2022-11-24T12:57:17.386Z,12.35
2022-11-24T12:59:57.673Z,12.20
2022-11-24T13:02:39.664Z,12.15
2022-11-24T13:05:22.819Z,9.40
2022-11-24T13:07:57.069Z,14.13
2022-11-24T13:10:54.628Z,10.43
2022-11-24T13:13:26.285Z,10.88
2022-11-24T13:19:09.087Z,10.90
2022-11-24T13:22:15.640Z,13.00
2022-11-24T13:24:43.593Z,10.93
2022-11-24T13:27:40.126Z,12.43
2022-11-24T13:30:58.690Z,11.50
2022-11-24T13:33:37.772Z,20.60
2022-11-24T13:36:52.273Z,14.52
2022-11-24T13:39:21.822Z,13.35
2022-11-24T13:42:41.053Z,10.55
2022-11-24T13:45:01.240Z,14.68
2022-11-24T13:47:43.548Z,14.73
2022-11-24T13:52:55.031Z,11.60
2022-11-24T13:55:36.022Z,14.45
2022-11-24T13:58:30.800Z,14.15
2022-11-24T14:01:14.830Z,8.30
2022-11-24T14:04:28.549Z,15.63
2022-11-24T14:06:48.348Z,13.00
2022-11-24T14:09:25.686Z,8.85
2022-11-24T14:15:22.572Z,13.18
2022-11-24T14:17:51.066Z,9.57
2022-11-24T14:20:24.873Z,15.85
2022-11-24T14:22:53.144Z,18.23
2022-11-24T14:25:29.713Z,14.27
2022-11-24T14:27:57.569Z,12.20
2022-11-24T14:30:25.766Z,10.27
2022-11-24T14:32:59.946Z,12.07
2022-11-24T14:35:30.582Z,14.00
2022-11-24T14:37:57.770Z,10.40
2022-11-24T14:40:40.727Z,10.35
2022-11-24T14:43:21.510Z,10.13
2022-11-24T14:45:55.702Z,11.65
2022-11-24T14:48:31.527Z,13.80
2022-11-24T14:51:12.747Z,9.95
2022-11-24T14:53:42.633Z,14.45
2022-11-24T14:56:23.152Z,13.15
2022-11-24T14:58:50.215Z,11.40
2022-11-24T15:01:29.427Z,11.05
2022-11-24T15:04:32.441Z,13.02
2022-11-24T15:07:15.776Z,11.15
2022-11-24T15:09:52.268Z,13.30
2022-11-24T15:12:27.711Z,10.65
2022-11-24T15:14:59.973Z,11.15
2022-11-24T15:17:29.536Z,9.98
2022-11-24T15:20:02.762Z,11.48
2022-11-24T15:22:40.291Z,10.70
2022-11-24T15:25:29.502Z,13.40
2022-11-24T15:27:56.794Z,10.07
2022-11-24T15:30:23.952Z,12.23
2022-11-24T15:32:56.468Z,10.10
2022-11-24T15:35:28.462Z,15.10
2022-11-24T15:37:55.514Z,14.38
2022-11-24T15:40:22.909Z,13.90
2022-11-24T15:42:52.423Z,9.55
2022-11-24T15:45:21.895Z,11.68
2022-11-24T15:47:48.797Z,12.85
2022-11-24T15:50:16.660Z,12.95
2022-11-24T15:52:47.292Z,12.10
2022-11-24T15:55:19.252Z,9.27
2022-11-24T15:57:47.819Z,13.00
2022-11-24T16:00:18.271Z,14.00
2022-11-24T16:03:44.607Z,16.63
2022-11-24T16:05:57.695Z,12.50
2022-11-24T16:08:26.480Z,12.30
2022-11-24T16:10:53.568Z,16.38
2022-11-24T16:13:20.519Z,15.20
2022-11-24T16:15:47.388Z,16.40
2022-11-24T16:18:15.343Z,14.50
2022-11-24T16:20:42.286Z,14.70
2022-11-24T16:23:09.347Z,12.77
2022-11-24T16:25:37.550Z,16.23
2022-11-24T16:28:04.981Z,11.55
2022-11-24T16:30:31.964Z,16.25
2022-11-24T16:32:58.819Z,12.93
2022-11-24T16:35:25.898Z,14.43
2022-11-24T16:37:52.898Z,14.57
2022-11-24T16:40:19.928Z,20.45
2022-11-24T16:42:48.154Z,20.85
2022-11-24T16:45:15.307Z,18.88
2022-11-24T16:47:43.158Z,15.30
2022-11-24T16:50:12.025Z,12.18
2022-11-24T16:52:39.488Z,13.70
2022-11-24T16:55:08.299Z,16.27
2022-11-24T16:57:36.099Z,11.90
2022-11-24T17:00:06.989Z,14.05
2022-11-24T17:02:34.123Z,13.45
2022-11-24T17:05:00.953Z,13.05
2022-11-24T17:07:28.245Z,15.40
2022-11-24T17:09:55.162Z,15.50
2022-11-24T17:12:22.226Z,11.57
2022-11-24T17:15:16.403Z,11.55
2022-11-24T17:17:55.130Z,19.67
2022-11-24T17:20:25.114Z,11.73
2022-11-24T17:22:53.951Z,9.95
2022-11-24T17:25:20.768Z,12.02
2022-11-24T17:27:47.746Z,15.48
2022-11-24T17:30:15.074Z,12.60
2022-11-24T17:32:43.327Z,18.23
2022-11-24T17:35:11.812Z,18.73
2022-11-24T17:37:38.659Z,11.48
2022-11-24T17:40:27.469Z,18.13
2022-11-24T17:42:58.249Z,13.57
2022-11-24T17:45:25.923Z,14.93
2022-11-24T17:47:54.132Z,11.60
2022-11-24T17:50:25.625Z,14.55
2022-11-24T17:52:55.570Z,15.27
2022-11-24T17:55:22.567Z,14.57
2022-11-24T17:57:49.652Z,14.90
2022-11-24T18:00:17.797Z,12.27
2022-11-24T18:02:44.860Z,12.30
2022-11-24T18:05:13.630Z,14.20
2022-11-24T18:07:40.920Z,15.85
2022-11-24T18:10:08.935Z,18.10
2022-11-24T18:12:35.817Z,16.17
2022-11-24T18:15:02.871Z,15.40
2022-11-24T18:17:29.917Z,15.55
2022-11-24T18:19:57.022Z,13.85
2022-11-24T18:22:49.882Z,14.45
2022-11-24T18:25:12.520Z,14.13
2022-11-24T18:27:39.405Z,12.88
2022-11-24T18:30:08.527Z,14.98
2022-11-24T18:32:35.972Z,18.88
2022-11-24T18:35:03.004Z,11.75
2022-11-24T18:37:31.422Z,13.13
2022-11-24T18:39:58.571Z,12.55
2022-11-24T18:42:25.932Z,12.43
2022-11-24T18:44:54.299Z,10.05
2022-11-24T18:47:21.626Z,13.93
2022-11-24T18:49:48.479Z,10.50
2022-11-24T18:52:15.739Z,10.55
2022-11-24T18:54:44.154Z,11.00
2022-11-24T18:57:11.480Z,11.15
2022-11-24T18:59:38.382Z,14.70
2022-11-24T19:02:05.553Z,10.57
2022-11-24T19:04:32.675Z,12.68
2022-11-24T19:06:59.765Z,14.23
2022-11-24T19:09:26.599Z,11.68
2022-11-24T19:11:54.858Z,11.30
2022-11-24T19:14:21.671Z,10.02
2022-11-24T19:16:48.853Z,9.00
2022-11-24T19:19:16.135Z,9.52
2022-11-24T19:21:43.188Z,12.07
2022-11-24T19:24:11.316Z,8.65
2022-11-24T19:26:39.123Z,7.93
2022-11-24T19:29:08.347Z,8.18
2022-11-24T19:31:38.322Z,7.50
2022-11-24T19:34:05.516Z,5.78
2022-11-24T19:36:32.557Z,6.93
2022-11-24T19:38:59.942Z,6.82
2022-11-24T19:41:30.011Z,7.40
2022-11-24T19:43:58.520Z,7.95
2022-11-24T19:46:28.980Z,9.77
2022-11-24T19:49:00.012Z,7.50
2022-11-24T19:51:30.595Z,7.95
2022-11-24T19:54:00.143Z,11.43
2022-11-24T19:56:30.138Z,9.82
2022-11-24T19:58:57.914Z,11.48
2022-11-24T20:01:28.799Z,12.82
2022-11-24T20:03:58.610Z,10.05
2022-11-24T20:06:27.905Z,11.15
2022-11-24T20:08:56.593Z,11.50
2022-11-24T20:11:23.534Z,12.10
2022-11-24T20:13:50.553Z,13.45
2022-11-24T20:16:19.897Z,9.63
2022-11-24T20:18:49.564Z,9.70
2022-11-24T20:21:19.554Z,10.10
2022-11-24T20:23:53.295Z,10.35
2022-11-24T20:26:22.565Z,9.05
2022-11-24T20:28:53.486Z,8.18
2022-11-24T20:31:25.028Z,11.95
2022-11-24T20:33:53.433Z,12.52
2022-11-24T20:36:23.304Z,11.43
2022-11-24T20:38:53.024Z,16.08
2022-11-24T20:41:22.971Z,14.30
2022-11-24T20:43:51.790Z,24.13
2022-11-24T20:46:21.811Z,24.52
2022-11-24T20:48:50.277Z,21.05
2022-11-24T20:51:21.757Z,18.25
2022-11-24T20:53:50.121Z,15.75
2022-11-24T20:56:19.892Z,14.90
2022-11-24T20:58:47.489Z,21.90
2022-11-24T21:01:18.305Z,16.25
2022-11-24T21:03:47.294Z,15.82
2022-11-24T21:06:14.794Z,11.73
2022-11-24T21:08:43.192Z,9.93
2022-11-24T21:11:12.687Z,10.13
2022-11-24T21:13:43.529Z,13.95
2022-11-24T21:16:15.367Z,13.07
2022-11-24T21:18:43.326Z,10.88
2022-11-24T21:21:11.521Z,10.70
2022-11-24T21:23:38.601Z,13.77
2022-11-24T21:26:16.547Z,39.00
2022-11-24T21:28:47.280Z,34.90
2022-11-24T21:31:17.342Z,32.28
2022-11-24T21:33:46.873Z,27.60
2022-11-24T21:36:16.482Z,24.85
2022-11-24T21:38:43.969Z,16.30
2022-11-24T21:41:13.457Z,10.40
2022-11-24T21:43:40.585Z,8.98
2022-11-24T21:46:10.445Z,8.48
2022-11-24T21:48:38.654Z,8.45
2022-11-24T21:51:11.279Z,7.07
2022-11-24T21:53:38.955Z,8.50
2022-11-24T21:56:10.384Z,9.05
2022-11-24T21:58:43.989Z,10.27
2022-11-24T22:01:11.513Z,10.15
2022-11-24T22:03:38.505Z,12.73
2022-11-24T22:06:06.395Z,12.77
2022-11-24T22:08:33.450Z,14.48
2022-11-24T22:11:02.343Z,12.30
2022-11-24T22:13:29.332Z,11.68
2022-11-24T22:16:02.916Z,10.75
2022-11-24T22:18:32.200Z,10.10
2022-11-24T22:20:59.616Z,10.48
2022-11-24T22:23:27.436Z,9.65
2022-11-24T22:25:54.388Z,7.43
2022-11-24T22:28:21.492Z,6.47
2022-11-24T22:30:48.373Z,9.40
2022-11-24T22:33:16.959Z,10.15
2022-11-24T22:35:43.935Z,7.95
2022-11-24T22:38:10.980Z,10.55
2022-11-24T22:40:37.864Z,10.10
2022-11-24T22:43:04.990Z,10.45
2022-11-24T22:45:32.147Z,10.55
2022-11-24T22:47:59.280Z,10.32
2022-11-24T22:50:27.664Z,9.85
2022-11-24T22:52:54.786Z,10.38
2022-11-24T22:55:21.732Z,8.00
2022-11-24T22:57:49.019Z,9.38
2022-11-24T23:00:18.356Z,7.57
2022-11-24T23:02:45.272Z,8.05
2022-11-24T23:05:41.418Z,7.65
2022-11-24T23:08:08.762Z,8.52
2022-11-24T23:10:35.637Z,6.78
2022-11-24T23:13:03.100Z,7.35
2022-11-24T23:15:30.636Z,6.70
2022-11-24T23:17:57.796Z,7.53
2022-11-24T23:20:27.928Z,6.25
2022-11-24T23:22:59.521Z,7.07
2022-11-24T23:25:26.588Z,6.38
2022-11-24T23:27:53.535Z,6.32
2022-11-24T23:30:20.564Z,8.35
2022-11-24T23:32:47.717Z,8.27
2022-11-24T23:35:15.277Z,6.15
2022-11-24T23:38:05.952Z,7.45
2022-11-24T23:40:30.811Z,5.68
2022-11-24T23:42:58.982Z,6.45
2022-11-24T23:45:26.256Z,7.97
2022-11-24T23:47:53.816Z,8.55
2022-11-24T23:50:21.079Z,5.70
2022-11-24T23:52:48.465Z,7.45
2022-11-24T23:55:15.995Z,7.55
2022-11-24T23:57:44.137Z,7.80
